Time,TemperatureF,DewpointF,PressureIn,WindDirection,WindDirectionDegrees,WindSpeedMPH,WindSpeedGustMPH,Humidity,HourlyPrecipIn,Conditions,Clouds,dailyrainin,SoftwareType,DateUTC
2013-03-13 00:03:00,47.0,45.0,29.85,SSE,157,16.0,30.0,94,0.09,,,0.36,,2013-03-13 04:03:00,
2013-03-13 00:13:00,47.0,45.0,29.85,SSE,157,16.0,30.0,94,0.09,,,0.36,,2013-03-13 04:13:00,
2013-03-13 00:23:00,47.0,45.0,29.84,ESE,115,20.0,32.0,94,0.07,,,0.37,,2013-03-13 04:23:00,
2013-03-13 00:32:00,47.0,45.0,29.84,SSE,153,19.0,30.0,94,0.08,,,0.38,,2013-03-13 04:32:00,
2013-03-13 00:43:00,47.0,45.0,29.84,SSE,153,19.0,30.0,94,0.08,,,0.38,,2013-03-13 04:43:00,
2013-03-13 00:52:00,47.0,45.0,29.83,SSW,193,15.0,26.0,94,0.06,,,0.38,,2013-03-13 04:52:00,
2013-03-13 01:02:00,47.0,45.0,29.82,SSE,161,17.0,31.0,94,0.05,,,0.41,,2013-03-13 05:02:00,
2013-03-13 01:12:00,47.0,45.0,29.82,SSE,161,17.0,31.0,94,0.05,,,0.41,,2013-03-13 05:12:00,
2013-03-13 01:22:00,47.0,45.0,29.81,SSE,161,19.0,36.0,94,0.06,,,0.43,,2013-03-13 05:22:00,
2013-03-13 01:32:00,47.0,45.0,29.79,SE,144,17.0,31.0,94,0.10,,,0.48,,2013-03-13 05:32:00,
2013-03-13 01:42:00,47.0,45.0,29.79,SE,144,17.0,31.0,94,0.10,,,0.48,,2013-03-13 05:42:00,
2013-03-13 01:52:00,47.0,45.0,29.78,SSE,151,16.0,34.0,94,0.13,,,0.52,,2013-03-13 05:52:00,
2013-03-13 02:02:00,47.0,46.0,29.77,SSE,150,20.0,33.0,95,0.17,,,0.58,,2013-03-13 06:02:00,
2013-03-13 02:10:00,46.0,44.0,29.78,SE,128,14.0,26.0,94,0.14,,,0.60,,2013-03-13 06:10:00,
2013-03-13 02:12:00,47.0,46.0,29.77,SSE,150,20.0,33.0,95,0.17,,,0.58,,2013-03-13 06:12:00,
2013-03-13 02:23:00,47.0,45.0,29.77,SSE,150,18.0,31.0,94,0.16,,,0.59,,2013-03-13 06:23:00,
2013-03-13 02:32:00,46.0,44.0,29.78,SE,128,14.0,26.0,94,0.14,,,0.60,,2013-03-13 06:32:00,
2013-03-13 02:42:00,46.0,44.0,29.78,SE,128,14.0,26.0,94,0.14,,,0.60,,2013-03-13 06:42:00,
2013-03-13 02:52:00,46.0,44.0,29.78,SE,128,14.0,26.0,94,0.14,,,0.60,,2013-03-13 06:52:00,
2013-03-13 03:03:00,46.0,44.0,29.78,SE,128,14.0,26.0,94,0.14,,,0.60,,2013-03-13 07:03:00,
2013-03-13 09:53:00,44.0,43.0,29.70,South,191,1.0,4.0,96,0.02,,,1.15,,2013-03-13 13:53:00,
2013-03-13 10:03:00,44.0,43.0,29.70,SSW,196,1.0,6.0,96,0.02,,,1.16,,2013-03-13 14:03:00,
2013-03-13 10:12:00,44.0,43.0,29.70,SSW,196,1.0,6.0,96,0.02,,,1.16,,2013-03-13 14:12:00,
2013-03-13 10:22:00,44.0,43.0,29.69,SSW,213,0.0,3.0,96,0.03,,,1.17,,2013-03-13 14:22:00,
2013-03-13 10:33:00,45.0,44.0,29.68,WNW,284,4.0,6.0,96,0.02,,,1.17,,2013-03-13 14:33:00,
2013-03-13 10:42:00,45.0,44.0,29.68,WNW,284,4.0,6.0,96,0.02,,,1.17,,2013-03-13 14:42:00,
2013-03-13 10:52:00,45.0,44.0,29.69,WSW,237,4.0,9.0,96,0.02,,,1.17,,2013-03-13 14:52:00,
2013-03-13 11:03:00,44.0,43.0,29.68,NW,325,2.0,7.0,96,0.01,,,1.17,,2013-03-13 15:03:00,
2013-03-13 11:12:00,44.0,43.0,29.68,NW,325,2.0,7.0,96,0.01,,,1.17,,2013-03-13 15:12:00,
2013-03-13 11:22:00,44.0,43.0,29.68,NNW,332,8.0,13.0,96,0.00,,,1.17,,2013-03-13 15:22:00,
2013-03-13 11:32:00,43.0,42.0,29.67,NW,325,6.0,12.0,96,0.00,,,1.17,,2013-03-13 15:32:00,
2013-03-13 11:43:00,43.0,42.0,29.67,NW,325,6.0,12.0,96,0.00,,,1.17,,2013-03-13 15:43:00,
2013-03-13 11:52:00,44.0,43.0,29.67,NNE,15,3.0,10.0,96,0.00,,,1.17,,2013-03-13 15:52:00,
2013-03-13 12:03:00,43.0,42.0,29.66,WNW,297,8.0,15.0,96,0.00,,,1.17,,2013-03-13 16:03:00,
2013-03-13 12:12:00,43.0,42.0,29.66,WNW,297,8.0,15.0,96,0.00,,,1.17,,2013-03-13 16:12:00,
2013-03-13 12:22:00,43.0,42.0,29.66,NNW,344,7.0,12.0,96,0.00,,,1.17,,2013-03-13 16:22:00,
2013-03-13 12:32:00,43.0,42.0,29.66,West,274,8.0,13.0,96,0.00,,,1.17,,2013-03-13 16:32:00,
2013-03-13 12:42:00,43.0,42.0,29.66,West,274,8.0,13.0,96,0.00,,,1.17,,2013-03-13 16:42:00,
2013-03-13 12:52:00,43.0,42.0,29.66,NW,304,6.0,14.0,96,0.00,,,1.17,,2013-03-13 16:52:00,
2013-03-13 13:03:00,43.0,42.0,29.66,North,355,8.0,14.0,96,0.00,,,1.17,,2013-03-13 17:03:00,
2013-03-13 13:12:00,43.0,42.0,29.66,North,355,8.0,14.0,96,0.00,,,1.17,,2013-03-13 17:12:00,
2013-03-13 13:23:00,43.0,42.0,29.65,NNW,345,8.0,12.0,95,0.00,,,1.17,,2013-03-13 17:23:00,
2013-03-13 13:33:00,43.0,42.0,29.65,NW,311,7.0,15.0,95,0.00,,,1.17,,2013-03-13 17:33:00,
2013-03-13 13:42:00,43.0,42.0,29.65,NW,311,7.0,15.0,95,0.00,,,1.17,,2013-03-13 17:42:00,
2013-03-13 13:53:00,44.0,43.0,29.65,NNW,327,5.0,9.0,95,0.00,,,1.17,,2013-03-13 17:53:00,
2013-03-13 14:02:00,43.0,41.0,29.65,NNW,343,9.0,14.0,94,0.00,,,1.17,,2013-03-13 18:02:00,
2013-03-13 14:12:00,43.0,41.0,29.65,NNW,343,9.0,14.0,94,0.00,,,1.17,,2013-03-13 18:12:00,
2013-03-13 14:22:00,43.0,41.0,29.65,NW,319,8.0,14.0,93,0.00,,,1.17,,2013-03-13 18:22:00,
2013-03-13 14:33:00,43.0,41.0,29.65,North,349,5.0,13.0,93,0.00,,,1.17,,2013-03-13 18:33:00,
2013-03-13 14:42:00,43.0,41.0,29.65,North,349,5.0,13.0,93,0.00,,,1.17,,2013-03-13 18:42:00,
2013-03-13 14:52:00,43.0,41.0,29.64,NW,323,6.0,11.0,93,0.00,,,1.17,,2013-03-13 18:52:00,
2013-03-13 15:03:00,43.0,41.0,29.64,NW,309,7.0,11.0,92,0.00,,,1.17,,2013-03-13 19:03:00,
2013-03-13 15:12:00,43.0,41.0,29.64,NW,309,7.0,11.0,92,0.00,,,1.17,,2013-03-13 19:12:00,
2013-03-13 15:22:00,43.0,41.0,29.64,WNW,300,8.0,14.0,93,0.00,,,1.17,,2013-03-13 19:22:00,
2013-03-13 15:32:00,43.0,41.0,29.65,NW,313,7.0,13.0,93,0.00,,,1.17,,2013-03-13 19:32:00,
2013-03-13 15:43:00,43.0,41.0,29.65,NW,313,7.0,13.0,93,0.00,,,1.17,,2013-03-13 19:43:00,
2013-03-13 15:52:00,43.0,41.0,29.65,WNW,284,8.0,12.0,92,0.00,,,1.17,,2013-03-13 19:52:00,
2013-03-13 16:02:00,43.0,41.0,29.65,NW,314,8.0,12.0,92,0.00,,,1.17,,2013-03-13 20:02:00,
2013-03-13 16:12:00,43.0,41.0,29.65,NW,314,8.0,12.0,92,0.00,,,1.17,,2013-03-13 20:12:00,
2013-03-13 16:22:00,44.0,42.0,29.65,WNW,299,5.0,9.0,91,0.00,,,1.17,,2013-03-13 20:22:00,
2013-03-13 16:32:00,42.0,40.0,29.66,WNW,294,10.0,15.0,91,0.01,,,1.18,,2013-03-13 20:32:00,
2013-03-13 16:42:00,42.0,40.0,29.66,WNW,294,10.0,15.0,91,0.01,,,1.18,,2013-03-13 20:42:00,
2013-03-13 16:52:00,43.0,40.0,29.67,WNW,296,8.0,14.0,90,0.01,,,1.18,,2013-03-13 20:52:00,
2013-03-13 17:02:00,43.0,40.0,29.66,NNW,344,4.0,11.0,89,0.01,,,1.18,,2013-03-13 21:02:00,
2013-03-13 17:12:00,43.0,40.0,29.66,NNW,344,4.0,11.0,89,0.01,,,1.18,,2013-03-13 21:12:00,
2013-03-13 17:22:00,44.0,41.0,29.67,WNW,288,6.0,10.0,88,0.01,,,1.18,,2013-03-13 21:22:00,
2013-03-13 17:33:00,44.0,40.0,29.66,NNW,344,7.0,12.0,87,0.00,,,1.18,,2013-03-13 21:33:00,
2013-03-13 17:42:00,44.0,40.0,29.66,NNW,344,7.0,12.0,87,0.00,,,1.18,,2013-03-13 21:42:00,
2013-03-13 17:52:00,44.0,40.0,29.66,WNW,302,7.0,13.0,86,0.00,,,1.18,,2013-03-13 21:52:00,
2013-03-13 18:02:00,43.0,39.0,29.65,NW,313,3.0,10.0,87,0.00,,,1.18,,2013-03-13 22:02:00,
2013-03-13 18:12:00,43.0,39.0,29.65,NW,313,3.0,10.0,87,0.00,,,1.18,,2013-03-13 22:12:00,
2013-03-13 18:22:00,44.0,40.0,29.65,NW,309,5.0,9.0,86,0.00,,,1.18,,2013-03-13 22:22:00,
2013-03-13 18:32:00,42.0,38.0,29.66,WNW,298,4.0,8.0,86,0.00,,,1.18,,2013-03-13 22:32:00,
2013-03-13 18:42:00,42.0,38.0,29.66,WNW,298,4.0,8.0,86,0.00,,,1.18,,2013-03-13 22:42:00,
2013-03-13 18:52:00,41.0,37.0,29.66,NNW,327,3.0,9.0,87,0.00,,,1.18,,2013-03-13 22:52:00,
2013-03-13 19:02:00,39.0,36.0,29.65,NNW,334,4.0,6.0,90,0.00,,,1.18,,2013-03-13 23:02:00,
2013-03-13 19:12:00,39.0,36.0,29.65,NNW,334,4.0,6.0,90,0.00,,,1.18,,2013-03-13 23:12:00,
2013-03-13 19:22:00,39.0,37.0,29.66,NW,312,3.0,5.0,91,0.00,,,1.18,,2013-03-13 23:22:00,
2013-03-13 19:32:00,38.0,36.0,29.67,NW,308,3.0,4.0,91,0.00,,,1.18,,2013-03-13 23:32:00,
2013-03-13 19:42:00,38.0,36.0,29.67,NW,308,3.0,4.0,91,0.00,,,1.18,,2013-03-13 23:42:00,
2013-03-13 19:52:00,37.0,35.0,29.67,NW,311,4.0,6.0,92,0.00,,,1.18,,2013-03-13 23:52:00,
2013-03-13 20:02:00,37.0,35.0,29.67,WNW,295,3.0,4.0,93,0.00,,,1.18,,2013-03-14 00:02:00,
2013-03-13 20:13:00,37.0,35.0,29.67,WNW,295,3.0,4.0,93,0.00,,,1.18,,2013-03-14 00:13:00,
2013-03-13 20:22:00,37.0,35.0,29.68,WNW,296,4.0,5.0,93,0.00,,,1.18,,2013-03-14 00:22:00,
2013-03-13 20:32:00,36.0,34.0,29.68,West,279,3.0,6.0,93,0.00,,,1.14,,2013-03-14 00:32:00,
2013-03-13 20:42:00,36.0,34.0,29.68,West,279,3.0,6.0,93,0.00,,,1.14,,2013-03-14 00:42:00,
2013-03-13 20:52:00,35.0,33.0,29.68,WNW,291,3.0,6.0,94,0.00,,,1.14,,2013-03-14 00:52:00,
2013-03-13 21:03:00,36.0,34.0,29.69,NW,306,6.0,11.0,94,0.00,,,1.14,,2013-03-14 01:03:00,
2013-03-13 21:12:00,36.0,34.0,29.69,NW,306,6.0,11.0,94,0.00,,,1.14,,2013-03-14 01:12:00,
2013-03-13 21:22:00,36.0,34.0,29.69,WNW,291,6.0,10.0,93,0.00,,,1.14,,2013-03-14 01:22:00,
2013-03-13 21:32:00,36.0,33.0,29.69,NW,321,5.0,11.0,89,0.00,,,1.10,,2013-03-14 01:32:00,
2013-03-13 21:42:00,36.0,33.0,29.69,NW,321,5.0,11.0,89,0.00,,,1.10,,2013-03-14 01:42:00,
2013-03-13 21:52:00,36.0,33.0,29.70,WNW,288,6.0,9.0,88,0.00,,,1.10,,2013-03-14 01:52:00,
2013-03-13 22:02:00,35.0,32.0,29.70,WNW,298,6.0,8.0,87,0.00,,,1.10,,2013-03-14 02:02:00,
2013-03-13 22:12:00,35.0,32.0,29.70,WNW,298,6.0,8.0,87,0.00,,,1.10,,2013-03-14 02:12:00,
2013-03-13 22:22:00,35.0,32.0,29.70,NW,317,6.0,8.0,87,0.00,,,1.10,,2013-03-14 02:22:00,
2013-03-13 22:33:00,35.0,30.0,29.70,NW,304,6.0,11.0,82,0.00,,,1.02,,2013-03-14 02:33:00,
2013-03-13 22:42:00,35.0,30.0,29.70,NW,304,6.0,11.0,82,0.00,,,1.02,,2013-03-14 02:42:00,
2013-03-13 22:51:00,35.0,30.0,29.70,NW,304,6.0,11.0,82,0.00,,,1.02,,2013-03-14 02:51:00,
2013-03-13 23:02:00,35.0,30.0,29.70,WNW,283,4.0,8.0,83,0.00,,,1.02,,2013-03-14 03:02:00,
2013-03-13 23:12:00,35.0,30.0,29.70,WNW,283,4.0,8.0,83,0.00,,,1.02,,2013-03-14 03:12:00,
2013-03-13 23:23:00,35.0,30.0,29.70,WNW,287,5.0,7.0,83,0.00,,,1.02,,2013-03-14 03:23:00,
2013-03-13 23:32:00,34.0,30.0,29.70,West,279,5.0,9.0,85,0.00,,,0.88,,2013-03-14 03:32:00,
2013-03-13 23:42:00,34.0,30.0,29.70,West,279,5.0,9.0,85,0.00,,,0.88,,2013-03-14 03:42:00,
2013-03-13 23:52:00,34.0,29.0,29.70,WNW,298,7.0,9.0,82,0.00,,,0.88,,2013-03-14 03:52:00,